Shelby, Montana
Current Conditions -  °F | °C
As of 7:56 PM on Monday 26 Jan 2015 (Local Time) from KCTB Reporting Station
Clear Clear  
Wind Chill: 44°   Ceiling: Unl
Heat Index: 48°   Visibility: 10mi
Dew Point: 28°   Wind: 8mph
Humidity: 46%   Direction: 250°WSW
Pressure: 29.89"   Gusts: NA
Location:  48.51°N, 111.86°W
Report Text: KCTB 270256Z AUTO 25007KT 10SM CLR 09/M02 A2989 RMK AO2 SLP119 T00891022 $
Loading
Personal Weather Stations






























Interactive Weather Map New forecast layout! Learn more

10-Day Weather Forecast

Advertisements
Track Severe Weather on mobile